sensor_id;sensor_type;location;lat;lon;timestamp;temperature;humidity
7704;DHT22;3894;49.700;10.770;2023-07-09T00:00:45;22.20;90.20
7704;DHT22;3894;49.700;10.770;2023-07-09T00:03:12;22.10;90.30
7704;DHT22;3894;49.700;10.770;2023-07-09T00:05:38;22.10;90.50
7704;DHT22;3894;49.700;10.770;2023-07-09T00:08:04;22.00;90.70
7704;DHT22;3894;49.700;10.770;2023-07-09T00:10:29;22.00;90.90
7704;DHT22;3894;49.700;10.770;2023-07-09T00:12:56;21.90;91.10
7704;DHT22;3894;49.700;10.770;2023-07-09T00:15:21;21.80;91.40
7704;DHT22;3894;49.700;10.770;2023-07-09T00:17:47;21.80;91.60
7704;DHT22;3894;49.700;10.770;2023-07-09T00:20:15;21.80;92.00
7704;DHT22;3894;49.700;10.770;2023-07-09T00:22:42;21.70;92.30
7704;DHT22;3894;49.700;10.770;2023-07-09T00:25:20;21.60;92.40
7704;DHT22;3894;49.700;10.770;2023-07-09T00:27:46;21.60;92.60
7704;DHT22;3894;49.700;10.770;2023-07-09T00:30:19;21.50;92.70
7704;DHT22;3894;49.700;10.770;2023-07-09T00:32:45;21.40;92.90
7704;DHT22;3894;49.700;10.770;2023-07-09T00:35:12;21.30;93.20
7704;DHT22;3894;49.700;10.770;2023-07-09T00:37:41;21.20;93.50
7704;DHT22;3894;49.700;10.770;2023-07-09T00:40:16;21.20;93.80
7704;DHT22;3894;49.700;10.770;2023-07-09T00:42:45;21.20;94.00
7704;DHT22;3894;49.700;10.770;2023-07-09T00:45:23;21.20;94.40
7704;DHT22;3894;49.700;10.770;2023-07-09T00:52:57;21.00;94.80
7704;DHT22;3894;49.700;10.770;2023-07-09T00:55:26;20.90;95.10
7704;DHT22;3894;49.700;10.770;2023-07-09T00:58:02;20.80;95.40
7704;DHT22;3894;49.700;10.770;2023-07-09T01:00:36;20.80;95.70
7704;DHT22;3894;49.700;10.770;2023-07-09T01:03:36;20.80;95.50
7704;DHT22;3894;49.700;10.770;2023-07-09T01:06:00;20.80;95.70
7704;DHT22;3894;49.700;10.770;2023-07-09T01:08:29;20.90;95.70
7704;DHT22;3894;49.700;10.770;2023-07-09T01:10:58;20.90;95.60
7704;DHT22;3894;49.700;10.770;2023-07-09T01:13:25;20.90;95.70
7704;DHT22;3894;49.700;10.770;2023-07-09T01:15:51;20.90;95.60
7704;DHT22;3894;49.700;10.770;2023-07-09T01:18:17;20.80;95.80
7704;DHT22;3894;49.700;10.770;2023-07-09T01:20:42;20.80;96.10
7704;DHT22;3894;49.700;10.770;2023-07-09T01:23:09;20.80;95.70
7704;DHT22;3894;49.700;10.770;2023-07-09T01:25:37;20.70;95.70
7704;DHT22;3894;49.700;10.770;2023-07-09T01:28:03;20.70;96.20
7704;DHT22;3894;49.700;10.770;2023-07-09T01:30:36;20.70;96.50
7704;DHT22;3894;49.700;10.770;2023-07-09T01:33:03;20.70;96.60
7704;DHT22;3894;49.700;10.770;2023-07-09T01:35:31;20.60;96.80
7704;DHT22;3894;49.700;10.770;2023-07-09T01:37:57;20.60;96.90
7704;DHT22;3894;49.700;10.770;2023-07-09T01:40:25;20.60;96.90
7704;DHT22;3894;49.700;10.770;2023-07-09T01:42:53;20.50;97.10
7704;DHT22;3894;49.700;10.770;2023-07-09T01:45:21;20.50;97.40
7704;DHT22;3894;49.700;10.770;2023-07-09T01:47:47;20.50;97.60
7704;DHT22;3894;49.700;10.770;2023-07-09T01:50:13;20.50;97.40
7704;DHT22;3894;49.700;10.770;2023-07-09T01:52:41;20.50;97.60
7704;DHT22;3894;49.700;10.770;2023-07-09T01:55:12;20.50;97.80
7704;DHT22;3894;49.700;10.770;2023-07-09T01:57:39;20.50;98.00
7704;DHT22;3894;49.700;10.770;2023-07-09T02:00:15;20.50;98.00
7704;DHT22;3894;49.700;10.770;2023-07-09T02:02:42;20.40;98.10
7704;DHT22;3894;49.700;10.770;2023-07-09T02:05:16;20.40;98.10
7704;DHT22;3894;49.700;10.770;2023-07-09T02:07:42;20.30;98.40
7704;DHT22;3894;49.700;10.770;2023-07-09T02:10:09;20.20;98.50
7704;DHT22;3894;49.700;10.770;2023-07-09T02:12:35;20.20;98.70
7704;DHT22;3894;49.700;10.770;2023-07-09T02:15:00;20.10;98.90
7704;DHT22;3894;49.700;10.770;2023-07-09T02:17:26;20.00;99.20
7704;DHT22;3894;49.700;10.770;2023-07-09T02:19:51;19.90;99.40
7704;DHT22;3894;49.700;10.770;2023-07-09T02:22:17;19.80;99.60
7704;DHT22;3894;49.700;10.770;2023-07-09T02:24:44;19.80;99.80
7704;DHT22;3894;49.700;10.770;2023-07-09T02:27:13;19.80;99.90
7704;DHT22;3894;49.700;10.770;2023-07-09T02:29:38;19.80;99.90
7704;DHT22;3894;49.700;10.770;2023-07-09T02:32:04;19.80;99.90
7704;DHT22;3894;49.700;10.770;2023-07-09T02:34:30;19.80;99.90
7704;DHT22;3894;49.700;10.770;2023-07-09T02:36:57;19.90;99.90
7704;DHT22;3894;49.700;10.770;2023-07-09T02:39:24;19.90;99.90
7704;DHT22;3894;49.700;10.770;2023-07-09T02:41:50;19.80;99.90
7704;DHT22;3894;49.700;10.770;2023-07-09T02:44:17;19.80;99.90
7704;DHT22;3894;49.700;10.770;2023-07-09T02:46:43;19.80;99.90
7704;DHT22;3894;49.700;10.770;2023-07-09T02:49:10;19.70;99.90
7704;DHT22;3894;49.700;10.770;2023-07-09T02:51:36;19.60;99.90
7704;DHT22;3894;49.700;10.770;2023-07-09T02:54:03;19.50;99.90
7704;DHT22;3894;49.700;10.770;2023-07-09T02:56:29;19.50;99.90
7704;DHT22;3894;49.700;10.770;2023-07-09T02:58:54;19.40;99.90
7704;DHT22;3894;49.700;10.770;2023-07-09T03:01:20;19.30;99.90
7704;DHT22;3894;49.700;10.770;2023-07-09T03:03:51;19.30;99.90
7704;DHT22;3894;49.700;10.770;2023-07-09T03:06:19;19.40;99.90
7704;DHT22;3894;49.700;10.770;2023-07-09T03:08:45;19.40;99.90
7704;DHT22;3894;49.700;10.770;2023-07-09T03:11:11;19.40;99.90
7704;DHT22;3894;49.700;10.770;2023-07-09T03:13:37;19.40;99.90
7704;DHT22;3894;49.700;10.770;2023-07-09T03:16:03;19.40;99.90
7704;DHT22;3894;49.700;10.770;2023-07-09T03:18:29;19.40;99.90
7704;DHT22;3894;49.700;10.770;2023-07-09T03:20:54;19.40;99.90
7704;DHT22;3894;49.700;10.770;2023-07-09T03:23:20;19.30;99.90
7704;DHT22;3894;49.700;10.770;2023-07-09T03:25:46;19.30;99.90
7704;DHT22;3894;49.700;10.770;2023-07-09T03:28:12;19.30;99.90
7704;DHT22;3894;49.700;10.770;2023-07-09T03:30:42;19.20;99.90
7704;DHT22;3894;49.700;10.770;2023-07-09T03:33:08;19.10;99.90
7704;DHT22;3894;49.700;10.770;2023-07-09T03:35:34;19.10;99.90
7704;DHT22;3894;49.700;10.770;2023-07-09T03:38:00;19.10;99.90
7704;DHT22;3894;49.700;10.770;2023-07-09T03:40:26;19.00;99.90
7704;DHT22;3894;49.700;10.770;2023-07-09T03:42:52;18.90;99.90
7704;DHT22;3894;49.700;10.770;2023-07-09T03:45:17;18.90;99.90
7704;DHT22;3894;49.700;10.770;2023-07-09T03:47:43;18.90;99.90
7704;DHT22;3894;49.700;10.770;2023-07-09T03:50:09;18.90;99.90
7704;DHT22;3894;49.700;10.770;2023-07-09T03:52:35;19.00;99.90
7704;DHT22;3894;49.700;10.770;2023-07-09T03:55:01;19.00;99.90
7704;DHT22;3894;49.700;10.770;2023-07-09T03:57:30;19.00;99.90
7704;DHT22;3894;49.700;10.770;2023-07-09T03:59:55;19.10;99.90
7704;DHT22;3894;49.700;10.770;2023-07-09T04:02:21;19.10;99.90
7704;DHT22;3894;49.700;10.770;2023-07-09T04:04:46;19.00;99.90
7704;DHT22;3894;49.700;10.770;2023-07-09T04:07:12;19.00;99.90
7704;DHT22;3894;49.700;10.770;2023-07-09T04:09:38;19.00;99.90
7704;DHT22;3894;49.700;10.770;2023-07-09T04:12:04;19.00;99.90
7704;DHT22;3894;49.700;10.770;2023-07-09T04:14:29;19.00;99.90
7704;DHT22;3894;49.700;10.770;2023-07-09T04:16:55;19.00;99.90
7704;DHT22;3894;49.700;10.770;2023-07-09T04:19:20;19.00;99.90
7704;DHT22;3894;49.700;10.770;2023-07-09T04:21:46;19.00;99.90
7704;DHT22;3894;49.700;10.770;2023-07-09T04:24:11;19.10;99.90
7704;DHT22;3894;49.700;10.770;2023-07-09T04:26:37;19.20;99.90
7704;DHT22;3894;49.700;10.770;2023-07-09T04:29:04;19.20;99.90
7704;DHT22;3894;49.700;10.770;2023-07-09T04:31:31;19.30;99.90
7704;DHT22;3894;49.700;10.770;2023-07-09T04:33:57;19.30;99.90
7704;DHT22;3894;49.700;10.770;2023-07-09T04:36:22;19.30;99.90
7704;DHT22;3894;49.700;10.770;2023-07-09T04:38:48;19.40;99.90
7704;DHT22;3894;49.700;10.770;2023-07-09T04:41:14;19.40;99.90
7704;DHT22;3894;49.700;10.770;2023-07-09T04:43:39;19.50;99.90
7704;DHT22;3894;49.700;10.770;2023-07-09T04:46:05;19.50;99.90
7704;DHT22;3894;49.700;10.770;2023-07-09T04:48:30;19.50;99.90
7704;DHT22;3894;49.700;10.770;2023-07-09T04:50:56;19.60;99.90
7704;DHT22;3894;49.700;10.770;2023-07-09T04:53:21;19.70;99.90
7704;DHT22;3894;49.700;10.770;2023-07-09T04:55:49;19.70;99.90
7704;DHT22;3894;49.700;10.770;2023-07-09T04:58:15;19.80;99.90
7704;DHT22;3894;49.700;10.770;2023-07-09T05:00:42;19.90;99.90
7704;DHT22;3894;49.700;10.770;2023-07-09T05:03:08;20.00;99.90
7704;DHT22;3894;49.700;10.770;2023-07-09T05:05:33;20.10;99.90
7704;DHT22;3894;49.700;10.770;2023-07-09T05:07:59;20.20;99.90
7704;DHT22;3894;49.700;10.770;2023-07-09T05:10:25;20.40;99.90
7704;DHT22;3894;49.700;10.770;2023-07-09T05:12:52;20.80;99.90
7704;DHT22;3894;49.700;10.770;2023-07-09T05:15:20;21.00;99.90
7704;DHT22;3894;49.700;10.770;2023-07-09T05:17:45;21.10;99.90
7704;DHT22;3894;49.700;10.770;2023-07-09T05:20:12;21.20;99.90
7704;DHT22;3894;49.700;10.770;2023-07-09T05:22:38;21.30;99.90
7704;DHT22;3894;49.700;10.770;2023-07-09T05:25:04;21.50;99.90
7704;DHT22;3894;49.700;10.770;2023-07-09T05:27:29;21.70;99.90
7704;DHT22;3894;49.700;10.770;2023-07-09T05:29:55;21.90;99.90
7704;DHT22;3894;49.700;10.770;2023-07-09T05:32:21;22.10;99.90
7704;DHT22;3894;49.700;10.770;2023-07-09T05:34:46;22.20;99.90
7704;DHT22;3894;49.700;10.770;2023-07-09T05:37:12;22.30;99.90
7704;DHT22;3894;49.700;10.770;2023-07-09T05:39:37;22.30;99.90
7704;DHT22;3894;49.700;10.770;2023-07-09T05:42:03;22.40;99.90
7704;DHT22;3894;49.700;10.770;2023-07-09T05:44:28;22.50;99.90
7704;DHT22;3894;49.700;10.770;2023-07-09T05:46:54;22.60;99.90
7704;DHT22;3894;49.700;10.770;2023-07-09T05:49:20;22.60;99.90
7704;DHT22;3894;49.700;10.770;2023-07-09T05:51:45;22.70;99.90
7704;DHT22;3894;49.700;10.770;2023-07-09T05:54:11;22.80;99.90
7704;DHT22;3894;49.700;10.770;2023-07-09T05:56:37;22.90;99.90
7704;DHT22;3894;49.700;10.770;2023-07-09T05:59:03;23.00;99.90
7704;DHT22;3894;49.700;10.770;2023-07-09T06:01:28;23.10;99.90
7704;DHT22;3894;49.700;10.770;2023-07-09T06:03:54;23.20;99.90
7704;DHT22;3894;49.700;10.770;2023-07-09T06:06:20;23.30;99.90
7704;DHT22;3894;49.700;10.770;2023-07-09T06:08:47;23.50;99.90
7704;DHT22;3894;49.700;10.770;2023-07-09T06:11:13;23.60;99.80
7704;DHT22;3894;49.700;10.770;2023-07-09T06:13:40;23.70;99.60
7704;DHT22;3894;49.700;10.770;2023-07-09T06:16:06;23.80;99.10
7704;DHT22;3894;49.700;10.770;2023-07-09T06:18:32;23.80;98.80
7704;DHT22;3894;49.700;10.770;2023-07-09T06:20:59;23.90;99.00
7704;DHT22;3894;49.700;10.770;2023-07-09T06:23:25;24.00;98.80
7704;DHT22;3894;49.700;10.770;2023-07-09T06:25:51;24.10;98.30
7704;DHT22;3894;49.700;10.770;2023-07-09T06:28:23;24.30;98.50
7704;DHT22;3894;49.700;10.770;2023-07-09T06:30:49;24.50;98.40
7704;DHT22;3894;49.700;10.770;2023-07-09T06:33:15;24.60;98.10
7704;DHT22;3894;49.700;10.770;2023-07-09T06:35:50;24.90;98.00
7704;DHT22;3894;49.700;10.770;2023-07-09T06:38:16;24.90;97.50
7704;DHT22;3894;49.700;10.770;2023-07-09T06:40:42;25.10;97.30
7704;DHT22;3894;49.700;10.770;2023-07-09T06:43:08;25.20;97.20
7704;DHT22;3894;49.700;10.770;2023-07-09T06:45:34;25.30;97.10
7704;DHT22;3894;49.700;10.770;2023-07-09T06:48:00;25.30;96.60
7704;DHT22;3894;49.700;10.770;2023-07-09T06:50:26;25.40;96.60
7704;DHT22;3894;49.700;10.770;2023-07-09T06:52:51;25.50;96.50
7704;DHT22;3894;49.700;10.770;2023-07-09T06:55:17;25.60;96.30
7704;DHT22;3894;49.700;10.770;2023-07-09T06:57:43;25.50;96.10
7704;DHT22;3894;49.700;10.770;2023-07-09T07:00:09;25.70;95.90
7704;DHT22;3894;49.700;10.770;2023-07-09T07:02:35;25.80;96.00
7704;DHT22;3894;49.700;10.770;2023-07-09T07:05:00;26.00;96.00
7704;DHT22;3894;49.700;10.770;2023-07-09T07:07:26;26.20;95.70
7704;DHT22;3894;49.700;10.770;2023-07-09T07:09:52;26.30;95.20
7704;DHT22;3894;49.700;10.770;2023-07-09T07:12:26;26.40;95.00
7704;DHT22;3894;49.700;10.770;2023-07-09T07:14:52;26.60;94.70
7704;DHT22;3894;49.700;10.770;2023-07-09T07:17:17;26.80;94.30
7704;DHT22;3894;49.700;10.770;2023-07-09T07:19:43;26.90;94.20
7704;DHT22;3894;49.700;10.770;2023-07-09T07:22:09;27.00;94.00
7704;DHT22;3894;49.700;10.770;2023-07-09T07:24:34;27.10;93.70
7704;DHT22;3894;49.700;10.770;2023-07-09T07:27:00;27.20;93.70
7704;DHT22;3894;49.700;10.770;2023-07-09T07:29:25;27.30;93.30
7704;DHT22;3894;49.700;10.770;2023-07-09T07:31:51;27.20;93.20
7704;DHT22;3894;49.700;10.770;2023-07-09T07:34:16;27.30;93.10
7704;DHT22;3894;49.700;10.770;2023-07-09T07:36:42;27.40;93.10
7704;DHT22;3894;49.700;10.770;2023-07-09T07:39:07;27.50;93.20
7704;DHT22;3894;49.700;10.770;2023-07-09T07:41:33;27.60;92.50
7704;DHT22;3894;49.700;10.770;2023-07-09T07:43:58;27.70;92.70
7704;DHT22;3894;49.700;10.770;2023-07-09T07:46:24;27.80;92.70
7704;DHT22;3894;49.700;10.770;2023-07-09T07:48:51;27.90;92.30
7704;DHT22;3894;49.700;10.770;2023-07-09T07:51:16;28.10;92.40
7704;DHT22;3894;49.700;10.770;2023-07-09T07:53:42;28.30;91.80
7704;DHT22;3894;49.700;10.770;2023-07-09T07:56:08;28.40;91.60
7704;DHT22;3894;49.700;10.770;2023-07-09T07:58:34;28.50;91.30
7704;DHT22;3894;49.700;10.770;2023-07-09T08:00:59;28.60;91.00
7704;DHT22;3894;49.700;10.770;2023-07-09T08:03:25;28.50;90.20
7704;DHT22;3894;49.700;10.770;2023-07-09T08:05:51;28.20;90.60
7704;DHT22;3894;49.700;10.770;2023-07-09T08:08:17;28.40;90.70
7704;DHT22;3894;49.700;10.770;2023-07-09T08:10:43;28.50;90.00
7704;DHT22;3894;49.700;10.770;2023-07-09T08:13:09;28.50;90.40
7704;DHT22;3894;49.700;10.770;2023-07-09T08:15:34;28.70;90.10
7704;DHT22;3894;49.700;10.770;2023-07-09T08:18:00;28.80;89.60
7704;DHT22;3894;49.700;10.770;2023-07-09T08:20:26;29.00;90.00
7704;DHT22;3894;49.700;10.770;2023-07-09T08:22:51;29.20;89.30
7704;DHT22;3894;49.700;10.770;2023-07-09T08:25:17;29.40;88.80
7704;DHT22;3894;49.700;10.770;2023-07-09T08:27:43;29.50;86.80
7704;DHT22;3894;49.700;10.770;2023-07-09T08:30:09;29.30;86.80
7704;DHT22;3894;49.700;10.770;2023-07-09T08:32:35;29.40;87.90
7704;DHT22;3894;49.700;10.770;2023-07-09T08:35:01;29.60;87.50
7704;DHT22;3894;49.700;10.770;2023-07-09T08:37:26;29.80;87.40
7704;DHT22;3894;49.700;10.770;2023-07-09T08:39:52;30.10;86.60
7704;DHT22;3894;49.700;10.770;2023-07-09T08:42:29;30.20;85.90
7704;DHT22;3894;49.700;10.770;2023-07-09T08:45:11;30.20;84.00
7704;DHT22;3894;49.700;10.770;2023-07-09T08:47:51;30.20;83.60
7704;DHT22;3894;49.700;10.770;2023-07-09T08:50:40;30.20;85.10
7704;DHT22;3894;49.700;10.770;2023-07-09T08:53:16;30.40;84.80
7704;DHT22;3894;49.700;10.770;2023-07-09T08:55:44;30.50;83.80
7704;DHT22;3894;49.700;10.770;2023-07-09T08:58:16;30.50;82.40
7704;DHT22;3894;49.700;10.770;2023-07-09T09:00:53;30.40;83.40
7704;DHT22;3894;49.700;10.770;2023-07-09T09:03:30;30.50;83.00
7704;DHT22;3894;49.700;10.770;2023-07-09T09:06:00;30.70;81.70
7704;DHT22;3894;49.700;10.770;2023-07-09T09:11:43;30.70;79.30
7704;DHT22;3894;49.700;10.770;2023-07-09T09:14:38;30.40;79.50
7704;DHT22;3894;49.700;10.770;2023-07-09T09:17:14;30.60;78.90
7704;DHT22;3894;49.700;10.770;2023-07-09T09:22:26;31.10;77.90
7704;DHT22;3894;49.700;10.770;2023-07-09T09:27:28;31.60;76.40
7704;DHT22;3894;49.700;10.770;2023-07-09T09:29:53;31.90;74.10
7704;DHT22;3894;49.700;10.770;2023-07-09T09:32:27;31.90;71.80
7704;DHT22;3894;49.700;10.770;2023-07-09T09:34:53;31.90;72.30
7704;DHT22;3894;49.700;10.770;2023-07-09T09:37:24;32.10;73.50
7704;DHT22;3894;49.700;10.770;2023-07-09T09:39:49;32.30;73.70
7704;DHT22;3894;49.700;10.770;2023-07-09T09:42:15;32.40;73.40
7704;DHT22;3894;49.700;10.770;2023-07-09T09:44:45;32.50;72.40
7704;DHT22;3894;49.700;10.770;2023-07-09T09:47:11;32.60;70.10
7704;DHT22;3894;49.700;10.770;2023-07-09T09:49:43;32.70;69.40
7704;DHT22;3894;49.700;10.770;2023-07-09T09:52:13;32.80;69.50
7704;DHT22;3894;49.700;10.770;2023-07-09T09:54:41;32.70;66.70
7704;DHT22;3894;49.700;10.770;2023-07-09T09:57:22;32.50;67.30
7704;DHT22;3894;49.700;10.770;2023-07-09T09:59:48;32.70;67.70
7704;DHT22;3894;49.700;10.770;2023-07-09T10:02:24;32.80;66.60
7704;DHT22;3894;49.700;10.770;2023-07-09T10:04:51;32.80;65.90
7704;DHT22;3894;49.700;10.770;2023-07-09T10:07:39;32.90;66.70
7704;DHT22;3894;49.700;10.770;2023-07-09T10:10:15;33.10;66.80
7704;DHT22;3894;49.700;10.770;2023-07-09T10:12:59;33.30;66.30
7704;DHT22;3894;49.700;10.770;2023-07-09T10:18:02;33.60;64.40
7704;DHT22;3894;49.700;10.770;2023-07-09T10:20:39;33.50;65.40
7704;DHT22;3894;49.700;10.770;2023-07-09T10:26:26;33.20;64.30
7704;DHT22;3894;49.700;10.770;2023-07-09T10:29:05;33.50;66.30
7704;DHT22;3894;49.700;10.770;2023-07-09T10:31:41;33.50;65.20
7704;DHT22;3894;49.700;10.770;2023-07-09T10:39:41;34.20;64.90
7704;DHT22;3894;49.700;10.770;2023-07-09T10:42:18;34.30;64.10
7704;DHT22;3894;49.700;10.770;2023-07-09T10:44:48;34.40;62.10
7704;DHT22;3894;49.700;10.770;2023-07-09T10:47:30;34.20;62.30
7704;DHT22;3894;49.700;10.770;2023-07-09T10:49:56;34.40;63.10
7704;DHT22;3894;49.700;10.770;2023-07-09T10:52:29;34.70;62.50
7704;DHT22;3894;49.700;10.770;2023-07-09T10:55:29;34.70;62.60
7704;DHT22;3894;49.700;10.770;2023-07-09T10:58:19;34.80;62.30
7704;DHT22;3894;49.700;10.770;2023-07-09T11:00:48;34.90;61.90
7704;DHT22;3894;49.700;10.770;2023-07-09T11:03:21;34.80;60.80
7704;DHT22;3894;49.700;10.770;2023-07-09T11:05:48;34.80;60.20
7704;DHT22;3894;49.700;10.770;2023-07-09T11:08:18;34.60;60.20
7704;DHT22;3894;49.700;10.770;2023-07-09T11:10:52;34.60;60.40
7704;DHT22;3894;49.700;10.770;2023-07-09T11:13:25;34.70;61.10
7704;DHT22;3894;49.700;10.770;2023-07-09T11:15:54;35.00;60.90
7704;DHT22;3894;49.700;10.770;2023-07-09T11:18:31;35.10;59.00
7704;DHT22;3894;49.700;10.770;2023-07-09T11:21:03;34.90;58.60
7704;DHT22;3894;49.700;10.770;2023-07-09T11:23:43;35.10;58.70
7704;DHT22;3894;49.700;10.770;2023-07-09T11:26:20;35.10;59.10
7704;DHT22;3894;49.700;10.770;2023-07-09T11:28:50;35.30;59.40
7704;DHT22;3894;49.700;10.770;2023-07-09T11:31:21;35.30;58.00
7704;DHT22;3894;49.700;10.770;2023-07-09T11:33:56;35.20;58.00
7704;DHT22;3894;49.700;10.770;2023-07-09T11:36:27;35.50;58.80
7704;DHT22;3894;49.700;10.770;2023-07-09T11:38:53;35.70;57.70
7704;DHT22;3894;49.700;10.770;2023-07-09T11:43:51;35.80;56.30
7704;DHT22;3894;49.700;10.770;2023-07-09T11:46:24;35.70;56.60
7704;DHT22;3894;49.700;10.770;2023-07-09T11:48:54;35.90;58.00
7704;DHT22;3894;49.700;10.770;2023-07-09T11:51:41;36.30;57.50
7704;DHT22;3894;49.700;10.770;2023-07-09T11:54:11;36.20;56.50
7704;DHT22;3894;49.700;10.770;2023-07-09T11:56:38;36.20;55.10
7704;DHT22;3894;49.700;10.770;2023-07-09T11:59:04;36.30;55.50
7704;DHT22;3894;49.700;10.770;2023-07-09T12:01:44;36.20;54.00
7704;DHT22;3894;49.700;10.770;2023-07-09T12:04:16;35.90;54.70
7704;DHT22;3894;49.700;10.770;2023-07-09T12:06:42;36.00;55.50
7704;DHT22;3894;49.700;10.770;2023-07-09T12:09:16;36.00;55.60
7704;DHT22;3894;49.700;10.770;2023-07-09T12:11:48;36.30;56.40
7704;DHT22;3894;49.700;10.770;2023-07-09T12:14:20;36.30;53.60
7704;DHT22;3894;49.700;10.770;2023-07-09T12:16:51;36.20;55.10
7704;DHT22;3894;49.700;10.770;2023-07-09T12:19:19;35.70;54.20
7704;DHT22;3894;49.700;10.770;2023-07-09T12:21:50;35.50;54.20
7704;DHT22;3894;49.700;10.770;2023-07-09T12:24:22;35.20;53.60
7704;DHT22;3894;49.700;10.770;2023-07-09T12:26:52;35.20;55.80
7704;DHT22;3894;49.700;10.770;2023-07-09T12:29:30;35.70;55.60
7704;DHT22;3894;49.700;10.770;2023-07-09T12:31:57;36.20;55.30
7704;DHT22;3894;49.700;10.770;2023-07-09T12:34:24;36.30;55.00
7704;DHT22;3894;49.700;10.770;2023-07-09T12:36:52;36.60;54.30
7704;DHT22;3894;49.700;10.770;2023-07-09T12:39:26;36.70;55.20
7704;DHT22;3894;49.700;10.770;2023-07-09T12:41:55;36.90;54.30
7704;DHT22;3894;49.700;10.770;2023-07-09T12:44:23;37.00;53.80
7704;DHT22;3894;49.700;10.770;2023-07-09T12:46:50;37.10;54.40
7704;DHT22;3894;49.700;10.770;2023-07-09T12:49:29;37.20;53.10
7704;DHT22;3894;49.700;10.770;2023-07-09T12:51:57;37.40;54.60
7704;DHT22;3894;49.700;10.770;2023-07-09T12:54:23;37.50;54.60
7704;DHT22;3894;49.700;10.770;2023-07-09T12:56:54;37.60;53.50
7704;DHT22;3894;49.700;10.770;2023-07-09T12:59:23;37.50;51.80
7704;DHT22;3894;49.700;10.770;2023-07-09T13:01:51;37.00;52.00
7704;DHT22;3894;49.700;10.770;2023-07-09T13:04:19;36.80;51.00
7704;DHT22;3894;49.700;10.770;2023-07-09T13:06:45;36.70;50.90
7704;DHT22;3894;49.700;10.770;2023-07-09T13:09:21;36.90;52.30
7704;DHT22;3894;49.700;10.770;2023-07-09T13:11:48;37.20;51.40
7704;DHT22;3894;49.700;10.770;2023-07-09T13:14:27;37.40;53.10
7704;DHT22;3894;49.700;10.770;2023-07-09T13:17:03;37.50;50.50
7704;DHT22;3894;49.700;10.770;2023-07-09T13:19:29;37.40;51.50
7704;DHT22;3894;49.700;10.770;2023-07-09T13:21:55;37.20;49.40
7704;DHT22;3894;49.700;10.770;2023-07-09T13:24:25;36.70;49.40
7704;DHT22;3894;49.700;10.770;2023-07-09T13:26:51;36.40;49.50
7704;DHT22;3894;49.700;10.770;2023-07-09T13:29:19;36.20;49.40
7704;DHT22;3894;49.700;10.770;2023-07-09T13:31:46;36.30;50.60
7704;DHT22;3894;49.700;10.770;2023-07-09T13:34:32;36.20;49.60
7704;DHT22;3894;49.700;10.770;2023-07-09T13:36:59;36.30;50.90
7704;DHT22;3894;49.700;10.770;2023-07-09T13:39:25;36.60;51.20
7704;DHT22;3894;49.700;10.770;2023-07-09T13:41:51;36.80;51.40
7704;DHT22;3894;49.700;10.770;2023-07-09T13:44:25;37.00;51.70
7704;DHT22;3894;49.700;10.770;2023-07-09T13:46:52;37.00;49.70
7704;DHT22;3894;49.700;10.770;2023-07-09T13:49:19;36.90;49.80
7704;DHT22;3894;49.700;10.770;2023-07-09T13:51:50;36.60;48.20
7704;DHT22;3894;49.700;10.770;2023-07-09T13:54:31;35.90;49.50
7704;DHT22;3894;49.700;10.770;2023-07-09T13:57:03;35.40;50.40
7704;DHT22;3894;49.700;10.770;2023-07-09T13:59:29;35.30;51.20
7704;DHT22;3894;49.700;10.770;2023-07-09T14:01:56;35.20;51.50
7704;DHT22;3894;49.700;10.770;2023-07-09T14:04:23;35.10;51.60
7704;DHT22;3894;49.700;10.770;2023-07-09T14:06:49;35.30;52.10
7704;DHT22;3894;49.700;10.770;2023-07-09T14:09:15;35.60;50.40
7704;DHT22;3894;49.700;10.770;2023-07-09T14:11:44;35.60;51.10
7704;DHT22;3894;49.700;10.770;2023-07-09T14:14:24;35.60;51.30
7704;DHT22;3894;49.700;10.770;2023-07-09T14:16:52;35.60;51.20
7704;DHT22;3894;49.700;10.770;2023-07-09T14:19:20;35.80;51.40
7704;DHT22;3894;49.700;10.770;2023-07-09T14:21:47;35.70;51.30
7704;DHT22;3894;49.700;10.770;2023-07-09T14:24:20;35.70;51.10
7704;DHT22;3894;49.700;10.770;2023-07-09T14:26:47;35.80;51.10
7704;DHT22;3894;49.700;10.770;2023-07-09T14:29:13;35.90;51.40
7704;DHT22;3894;49.700;10.770;2023-07-09T14:31:58;36.10;51.00
7704;DHT22;3894;49.700;10.770;2023-07-09T14:34:29;36.10;50.70
7704;DHT22;3894;49.700;10.770;2023-07-09T14:36:57;36.00;50.90
7704;DHT22;3894;49.700;10.770;2023-07-09T14:39:23;36.00;51.10
7704;DHT22;3894;49.700;10.770;2023-07-09T14:41:49;35.80;50.90
7704;DHT22;3894;49.700;10.770;2023-07-09T14:44:29;35.60;51.00
7704;DHT22;3894;49.700;10.770;2023-07-09T14:46:58;35.30;50.40
7704;DHT22;3894;49.700;10.770;2023-07-09T14:49:24;35.00;51.00
7704;DHT22;3894;49.700;10.770;2023-07-09T14:51:50;34.90;51.20
7704;DHT22;3894;49.700;10.770;2023-07-09T14:54:25;34.90;50.80
7704;DHT22;3894;49.700;10.770;2023-07-09T14:56:52;35.10;51.70
7704;DHT22;3894;49.700;10.770;2023-07-09T14:59:19;35.30;51.50
7704;DHT22;3894;49.700;10.770;2023-07-09T15:01:45;35.40;51.20
7704;DHT22;3894;49.700;10.770;2023-07-09T15:04:32;35.50;51.10
7704;DHT22;3894;49.700;10.770;2023-07-09T15:06:58;35.50;51.00
7704;DHT22;3894;49.700;10.770;2023-07-09T15:09:27;35.60;50.90
7704;DHT22;3894;49.700;10.770;2023-07-09T15:11:54;35.50;49.60
7704;DHT22;3894;49.700;10.770;2023-07-09T15:14:21;35.30;49.40
7704;DHT22;3894;49.700;10.770;2023-07-09T15:16:47;35.30;50.40
7704;DHT22;3894;49.700;10.770;2023-07-09T15:19:17;35.50;49.60
7704;DHT22;3894;49.700;10.770;2023-07-09T15:21:45;35.60;49.30
7704;DHT22;3894;49.700;10.770;2023-07-09T15:24:11;35.70;48.70
7704;DHT22;3894;49.700;10.770;2023-07-09T15:26:39;35.80;49.20
7704;DHT22;3894;49.700;10.770;2023-07-09T15:29:04;35.90;49.10
7704;DHT22;3894;49.700;10.770;2023-07-09T15:31:30;35.90;48.80
7704;DHT22;3894;49.700;10.770;2023-07-09T15:33:56;36.00;49.70
7704;DHT22;3894;49.700;10.770;2023-07-09T15:36:21;36.00;49.60
7704;DHT22;3894;49.700;10.770;2023-07-09T15:38:47;36.00;49.90
7704;DHT22;3894;49.700;10.770;2023-07-09T15:41:14;36.20;50.10
7704;DHT22;3894;49.700;10.770;2023-07-09T15:43:42;36.20;50.10
7704;DHT22;3894;49.700;10.770;2023-07-09T15:46:15;36.20;49.80
7704;DHT22;3894;49.700;10.770;2023-07-09T15:48:45;36.20;49.80
7704;DHT22;3894;49.700;10.770;2023-07-09T15:51:11;36.20;48.90
7704;DHT22;3894;49.700;10.770;2023-07-09T15:53:37;36.10;49.40
7704;DHT22;3894;49.700;10.770;2023-07-09T15:56:11;36.20;49.60
7704;DHT22;3894;49.700;10.770;2023-07-09T15:58:39;36.20;49.80
7704;DHT22;3894;49.700;10.770;2023-07-09T16:01:07;36.30;49.40
7704;DHT22;3894;49.700;10.770;2023-07-09T16:03:33;36.20;47.90
7704;DHT22;3894;49.700;10.770;2023-07-09T16:05:58;36.20;49.20
7704;DHT22;3894;49.700;10.770;2023-07-09T16:08:24;36.20;48.80
7704;DHT22;3894;49.700;10.770;2023-07-09T16:10:49;36.30;48.00
7704;DHT22;3894;49.700;10.770;2023-07-09T16:13:20;36.40;48.20
7704;DHT22;3894;49.700;10.770;2023-07-09T16:15:47;36.40;48.50
7704;DHT22;3894;49.700;10.770;2023-07-09T16:18:13;36.30;48.40
7704;DHT22;3894;49.700;10.770;2023-07-09T16:20:38;36.20;48.80